sensor_id;sensor_type;location;lat;lon;timestamp;P1;durP1;ratioP1;P2;durP2;ratioP2
42754;SDS011;28407;51.830;5.684;2022-10-16T00:01:33;2.70;;;2.22;;
42754;SDS011;28407;51.830;5.684;2022-10-16T00:03:34;3.78;;;2.20;;
42754;SDS011;28407;51.830;5.684;2022-10-16T00:05:39;2.03;;;1.83;;
42754;SDS011;28407;51.830;5.684;2022-10-16T00:07:41;4.10;;;2.10;;
42754;SDS011;28407;51.830;5.684;2022-10-16T00:09:42;3.13;;;2.30;;
42754;SDS011;28407;51.830;5.684;2022-10-16T00:11:42;3.17;;;2.20;;
42754;SDS011;28407;51.830;5.684;2022-10-16T00:13:43;2.72;;;2.40;;
42754;SDS011;28407;51.830;5.684;2022-10-16T00:15:45;2.33;;;2.00;;
42754;SDS011;28407;51.830;5.684;2022-10-16T00:17:46;2.53;;;2.20;;
42754;SDS011;28407;51.830;5.684;2022-10-16T00:19:46;2.30;;;2.10;;
42754;SDS011;28407;51.830;5.684;2022-10-16T00:21:47;2.45;;;2.00;;
42754;SDS011;28407;51.830;5.684;2022-10-16T00:23:51;3.00;;;2.70;;
42754;SDS011;28407;51.830;5.684;2022-10-16T00:25:57;3.05;;;2.08;;
42754;SDS011;28407;51.830;5.684;2022-10-16T00:28:00;4.15;;;2.03;;
42754;SDS011;28407;51.830;5.684;2022-10-16T00:30:00;3.08;;;2.10;;
42754;SDS011;28407;51.830;5.684;2022-10-16T00:32:01;2.58;;;1.90;;
42754;SDS011;28407;51.830;5.684;2022-10-16T00:34:02;2.80;;;2.20;;
42754;SDS011;28407;51.830;5.684;2022-10-16T00:36:03;3.22;;;2.25;;
42754;SDS011;28407;51.830;5.684;2022-10-16T00:38:05;4.40;;;2.30;;
42754;SDS011;28407;51.830;5.684;2022-10-16T00:40:06;3.05;;;1.92;;
42754;SDS011;28407;51.830;5.684;2022-10-16T00:42:09;4.53;;;2.40;;
42754;SDS011;28407;51.830;5.684;2022-10-16T00:44:57;2.40;;;1.85;;
42754;SDS011;28407;51.830;5.684;2022-10-16T00:46:45;3.53;;;2.50;;
42754;SDS011;28407;51.830;5.684;2022-10-16T00:48:50;3.38;;;2.35;;
42754;SDS011;28407;51.830;5.684;2022-10-16T00:50:54;3.15;;;2.42;;
42754;SDS011;28407;51.830;5.684;2022-10-16T00:52:57;3.40;;;2.67;;
42754;SDS011;28407;51.830;5.684;2022-10-16T00:55:01;3.92;;;2.38;;
42754;SDS011;28407;51.830;5.684;2022-10-16T00:57:05;4.55;;;2.13;;
42754;SDS011;28407;51.830;5.684;2022-10-16T00:59:08;4.75;;;2.42;;
42754;SDS011;28407;51.830;5.684;2022-10-16T01:01:15;2.88;;;2.20;;
42754;SDS011;28407;51.830;5.684;2022-10-16T01:03:23;2.67;;;2.28;;
42754;SDS011;28407;51.830;5.684;2022-10-16T01:05:30;2.55;;;2.22;;
42754;SDS011;28407;51.830;5.684;2022-10-16T01:07:58;2.40;;;2.13;;
42754;SDS011;28407;51.830;5.684;2022-10-16T01:10:17;3.83;;;2.25;;
42754;SDS011;28407;51.830;5.684;2022-10-16T01:12:41;2.95;;;2.67;;
42754;SDS011;28407;51.830;5.684;2022-10-16T01:14:48;3.72;;;2.55;;
42754;SDS011;28407;51.830;5.684;2022-10-16T01:17:00;2.97;;;2.17;;
42754;SDS011;28407;51.830;5.684;2022-10-16T01:19:09;3.28;;;2.30;;
42754;SDS011;28407;51.830;5.684;2022-10-16T01:21:24;2.83;;;2.28;;
42754;SDS011;28407;51.830;5.684;2022-10-16T01:27:45;2.47;;;1.95;;
42754;SDS011;28407;51.830;5.684;2022-10-16T01:29:52;3.40;;;2.20;;
42754;SDS011;28407;51.830;5.684;2022-10-16T01:32:00;2.13;;;1.97;;
42754;SDS011;28407;51.830;5.684;2022-10-16T01:34:11;2.40;;;2.20;;
42754;SDS011;28407;51.830;5.684;2022-10-16T01:36:18;2.83;;;2.00;;
42754;SDS011;28407;51.830;5.684;2022-10-16T01:38:41;2.63;;;2.22;;
42754;SDS011;28407;51.830;5.684;2022-10-16T01:40:46;2.50;;;1.80;;
42754;SDS011;28407;51.830;5.684;2022-10-16T01:42:59;3.65;;;2.50;;
42754;SDS011;28407;51.830;5.684;2022-10-16T01:45:15;2.10;;;1.88;;
42754;SDS011;28407;51.830;5.684;2022-10-16T01:47:19;3.55;;;3.15;;
42754;SDS011;28407;51.830;5.684;2022-10-16T01:49:24;2.40;;;2.10;;
42754;SDS011;28407;51.830;5.684;2022-10-16T01:51:28;2.03;;;1.85;;
42754;SDS011;28407;51.830;5.684;2022-10-16T01:53:29;3.13;;;2.00;;
42754;SDS011;28407;51.830;5.684;2022-10-16T01:55:32;2.47;;;2.20;;
42754;SDS011;28407;51.830;5.684;2022-10-16T01:57:38;3.03;;;2.55;;
42754;SDS011;28407;51.830;5.684;2022-10-16T01:59:46;3.00;;;2.63;;
42754;SDS011;28407;51.830;5.684;2022-10-16T02:01:49;2.67;;;2.00;;
42754;SDS011;28407;51.830;5.684;2022-10-16T02:03:55;2.38;;;2.10;;
42754;SDS011;28407;51.830;5.684;2022-10-16T02:05:59;2.35;;;1.88;;
42754;SDS011;28407;51.830;5.684;2022-10-16T02:08:00;2.42;;;1.98;;
42754;SDS011;28407;51.830;5.684;2022-10-16T02:10:00;3.65;;;3.10;;
42754;SDS011;28407;51.830;5.684;2022-10-16T02:12:03;2.90;;;2.03;;
42754;SDS011;28407;51.830;5.684;2022-10-16T02:14:10;2.83;;;2.45;;
42754;SDS011;28407;51.830;5.684;2022-10-16T02:16:11;2.08;;;1.88;;
42754;SDS011;28407;51.830;5.684;2022-10-16T02:18:14;2.28;;;1.90;;
42754;SDS011;28407;51.830;5.684;2022-10-16T02:20:15;2.67;;;1.80;;
42754;SDS011;28407;51.830;5.684;2022-10-16T02:22:18;2.53;;;1.88;;
42754;SDS011;28407;51.830;5.684;2022-10-16T02:27:33;2.33;;;1.92;;
42754;SDS011;28407;51.830;5.684;2022-10-16T02:29:46;3.13;;;1.95;;
42754;SDS011;28407;51.830;5.684;2022-10-16T02:31:51;3.35;;;2.13;;
42754;SDS011;28407;51.830;5.684;2022-10-16T02:33:58;1.98;;;1.77;;
42754;SDS011;28407;51.830;5.684;2022-10-16T02:35:59;2.70;;;2.05;;
42754;SDS011;28407;51.830;5.684;2022-10-16T02:38:01;2.83;;;2.10;;
42754;SDS011;28407;51.830;5.684;2022-10-16T02:40:02;2.40;;;1.95;;
42754;SDS011;28407;51.830;5.684;2022-10-16T02:42:06;3.33;;;1.73;;
42754;SDS011;28407;51.830;5.684;2022-10-16T02:44:13;2.00;;;1.80;;
42754;SDS011;28407;51.830;5.684;2022-10-16T02:46:14;1.80;;;1.70;;
42754;SDS011;28407;51.830;5.684;2022-10-16T02:48:14;5.05;;;3.10;;
42754;SDS011;28407;51.830;5.684;2022-10-16T02:50:15;2.63;;;1.90;;
42754;SDS011;28407;51.830;5.684;2022-10-16T02:52:16;2.72;;;1.80;;
42754;SDS011;28407;51.830;5.684;2022-10-16T02:54:17;2.13;;;1.80;;
42754;SDS011;28407;51.830;5.684;2022-10-16T02:56:17;3.22;;;2.15;;
42754;SDS011;28407;51.830;5.684;2022-10-16T02:58:18;2.25;;;1.95;;
42754;SDS011;28407;51.830;5.684;2022-10-16T03:00:20;3.38;;;1.83;;
42754;SDS011;28407;51.830;5.684;2022-10-16T03:02:21;2.00;;;1.80;;
42754;SDS011;28407;51.830;5.684;2022-10-16T03:04:21;2.13;;;1.92;;
42754;SDS011;28407;51.830;5.684;2022-10-16T03:06:22;2.65;;;1.70;;
42754;SDS011;28407;51.830;5.684;2022-10-16T03:08:23;2.63;;;1.95;;
42754;SDS011;28407;51.830;5.684;2022-10-16T03:10:25;2.22;;;2.00;;
42754;SDS011;28407;51.830;5.684;2022-10-16T03:12:26;2.58;;;2.00;;
42754;SDS011;28407;51.830;5.684;2022-10-16T03:14:27;2.38;;;1.98;;
42754;SDS011;28407;51.830;5.684;2022-10-16T03:16:28;2.13;;;1.90;;
42754;SDS011;28407;51.830;5.684;2022-10-16T03:18:28;2.17;;;1.90;;
42754;SDS011;28407;51.830;5.684;2022-10-16T03:20:29;2.00;;;1.77;;
42754;SDS011;28407;51.830;5.684;2022-10-16T03:22:29;2.15;;;1.73;;
42754;SDS011;28407;51.830;5.684;2022-10-16T03:24:30;2.60;;;2.08;;
42754;SDS011;28407;51.830;5.684;2022-10-16T03:26:30;2.00;;;1.80;;
42754;SDS011;28407;51.830;5.684;2022-10-16T03:28:31;1.98;;;1.77;;
42754;SDS011;28407;51.830;5.684;2022-10-16T03:30:32;2.22;;;1.90;;
42754;SDS011;28407;51.830;5.684;2022-10-16T03:32:32;2.92;;;2.38;;
42754;SDS011;28407;51.830;5.684;2022-10-16T03:34:33;1.90;;;1.80;;
42754;SDS011;28407;51.830;5.684;2022-10-16T03:36:33;2.33;;;1.83;;
42754;SDS011;28407;51.830;5.684;2022-10-16T03:38:34;3.20;;;2.10;;
42754;SDS011;28407;51.830;5.684;2022-10-16T03:40:35;1.98;;;1.77;;
42754;SDS011;28407;51.830;5.684;2022-10-16T03:42:35;1.95;;;1.70;;
42754;SDS011;28407;51.830;5.684;2022-10-16T03:44:36;2.72;;;2.45;;
42754;SDS011;28407;51.830;5.684;2022-10-16T03:46:36;2.88;;;2.25;;
42754;SDS011;28407;51.830;5.684;2022-10-16T03:48:37;2.92;;;2.20;;
42754;SDS011;28407;51.830;5.684;2022-10-16T03:50:37;1.75;;;1.60;;
42754;SDS011;28407;51.830;5.684;2022-10-16T03:52:38;3.20;;;1.98;;
42754;SDS011;28407;51.830;5.684;2022-10-16T03:54:39;2.85;;;1.92;;
42754;SDS011;28407;51.830;5.684;2022-10-16T03:56:39;2.70;;;2.50;;
42754;SDS011;28407;51.830;5.684;2022-10-16T03:58:40;2.65;;;1.90;;
42754;SDS011;28407;51.830;5.684;2022-10-16T04:00:41;3.63;;;2.20;;
42754;SDS011;28407;51.830;5.684;2022-10-16T04:02:42;2.22;;;2.03;;
42754;SDS011;28407;51.830;5.684;2022-10-16T04:04:43;2.00;;;1.83;;
42754;SDS011;28407;51.830;5.684;2022-10-16T04:06:43;2.60;;;2.00;;
42754;SDS011;28407;51.830;5.684;2022-10-16T04:08:44;2.72;;;1.80;;
42754;SDS011;28407;51.830;5.684;2022-10-16T04:10:45;2.38;;;1.90;;
42754;SDS011;28407;51.830;5.684;2022-10-16T04:12:46;3.42;;;1.90;;
42754;SDS011;28407;51.830;5.684;2022-10-16T04:14:46;2.03;;;1.80;;
42754;SDS011;28407;51.830;5.684;2022-10-16T04:16:47;1.88;;;1.63;;
42754;SDS011;28407;51.830;5.684;2022-10-16T04:18:47;2.42;;;2.15;;
42754;SDS011;28407;51.830;5.684;2022-10-16T04:20:48;1.60;;;1.50;;
42754;SDS011;28407;51.830;5.684;2022-10-16T04:22:48;1.98;;;1.88;;
42754;SDS011;28407;51.830;5.684;2022-10-16T04:24:49;2.15;;;1.95;;
42754;SDS011;28407;51.830;5.684;2022-10-16T04:26:50;2.17;;;1.90;;
42754;SDS011;28407;51.830;5.684;2022-10-16T04:28:50;2.03;;;1.70;;
42754;SDS011;28407;51.830;5.684;2022-10-16T04:30:51;4.80;;;2.53;;
42754;SDS011;28407;51.830;5.684;2022-10-16T04:32:52;3.45;;;1.90;;
42754;SDS011;28407;51.830;5.684;2022-10-16T04:34:53;3.40;;;2.10;;
42754;SDS011;28407;51.830;5.684;2022-10-16T04:36:53;2.53;;;2.33;;
42754;SDS011;28407;51.830;5.684;2022-10-16T04:38:54;2.10;;;1.70;;
42754;SDS011;28407;51.830;5.684;2022-10-16T04:40:55;2.10;;;1.90;;
42754;SDS011;28407;51.830;5.684;2022-10-16T04:42:56;2.30;;;2.10;;
42754;SDS011;28407;51.830;5.684;2022-10-16T04:44:56;2.05;;;1.85;;
42754;SDS011;28407;51.830;5.684;2022-10-16T04:46:57;1.88;;;1.73;;
42754;SDS011;28407;51.830;5.684;2022-10-16T04:48:57;2.25;;;2.05;;
42754;SDS011;28407;51.830;5.684;2022-10-16T04:50:58;1.88;;;1.77;;
42754;SDS011;28407;51.830;5.684;2022-10-16T04:52:59;2.03;;;1.77;;
42754;SDS011;28407;51.830;5.684;2022-10-16T04:55:00;1.77;;;1.63;;
42754;SDS011;28407;51.830;5.684;2022-10-16T04:57:02;2.47;;;2.00;;
42754;SDS011;28407;51.830;5.684;2022-10-16T05:01:05;2.58;;;2.10;;
42754;SDS011;28407;51.830;5.684;2022-10-16T05:03:05;2.65;;;1.83;;
42754;SDS011;28407;51.830;5.684;2022-10-16T05:05:08;2.28;;;1.75;;
42754;SDS011;28407;51.830;5.684;2022-10-16T05:07:09;3.03;;;1.60;;
42754;SDS011;28407;51.830;5.684;2022-10-16T05:09:10;1.77;;;1.67;;
42754;SDS011;28407;51.830;5.684;2022-10-16T05:11:10;3.55;;;2.00;;
42754;SDS011;28407;51.830;5.684;2022-10-16T05:13:11;3.22;;;1.90;;
42754;SDS011;28407;51.830;5.684;2022-10-16T05:15:12;2.17;;;1.88;;
42754;SDS011;28407;51.830;5.684;2022-10-16T05:17:12;2.50;;;2.30;;
42754;SDS011;28407;51.830;5.684;2022-10-16T05:19:13;2.92;;;2.22;;
42754;SDS011;28407;51.830;5.684;2022-10-16T05:21:14;2.30;;;2.08;;
42754;SDS011;28407;51.830;5.684;2022-10-16T05:23:15;4.40;;;1.92;;
42754;SDS011;28407;51.830;5.684;2022-10-16T05:25:15;2.00;;;1.80;;
42754;SDS011;28407;51.830;5.684;2022-10-16T05:27:16;2.47;;;1.60;;
42754;SDS011;28407;51.830;5.684;2022-10-16T05:29:20;2.42;;;1.70;;
42754;SDS011;28407;51.830;5.684;2022-10-16T05:31:20;3.78;;;1.77;;
42754;SDS011;28407;51.830;5.684;2022-10-16T05:33:21;2.25;;;1.80;;
42754;SDS011;28407;51.830;5.684;2022-10-16T05:37:24;2.30;;;1.90;;
42754;SDS011;28407;51.830;5.684;2022-10-16T05:39:24;1.80;;;1.70;;
42754;SDS011;28407;51.830;5.684;2022-10-16T05:41:25;1.90;;;1.73;;
42754;SDS011;28407;51.830;5.684;2022-10-16T05:43:29;2.17;;;1.90;;
42754;SDS011;28407;51.830;5.684;2022-10-16T05:45:30;3.20;;;1.80;;
42754;SDS011;28407;51.830;5.684;2022-10-16T05:47:31;2.20;;;2.00;;
42754;SDS011;28407;51.830;5.684;2022-10-16T05:49:31;3.03;;;1.90;;
42754;SDS011;28407;51.830;5.684;2022-10-16T05:51:32;1.80;;;1.63;;
42754;SDS011;28407;51.830;5.684;2022-10-16T05:53:33;2.08;;;1.90;;
42754;SDS011;28407;51.830;5.684;2022-10-16T05:55:34;1.92;;;1.73;;
42754;SDS011;28407;51.830;5.684;2022-10-16T05:57:35;1.95;;;1.83;;
42754;SDS011;28407;51.830;5.684;2022-10-16T05:59:35;2.58;;;2.00;;
42754;SDS011;28407;51.830;5.684;2022-10-16T06:01:36;3.85;;;1.92;;
42754;SDS011;28407;51.830;5.684;2022-10-16T06:03:37;1.95;;;1.80;;
42754;SDS011;28407;51.830;5.684;2022-10-16T06:05:38;4.40;;;2.00;;
42754;SDS011;28407;51.830;5.684;2022-10-16T06:07:38;2.28;;;2.00;;
42754;SDS011;28407;51.830;5.684;2022-10-16T06:09:39;2.38;;;2.00;;
42754;SDS011;28407;51.830;5.684;2022-10-16T06:11:39;2.20;;;2.00;;
42754;SDS011;28407;51.830;5.684;2022-10-16T06:13:40;3.42;;;1.90;;
42754;SDS011;28407;51.830;5.684;2022-10-16T06:15:42;2.08;;;1.88;;
42754;SDS011;28407;51.830;5.684;2022-10-16T06:17:43;1.90;;;1.80;;
42754;SDS011;28407;51.830;5.684;2022-10-16T06:19:43;3.92;;;2.05;;
42754;SDS011;28407;51.830;5.684;2022-10-16T06:21:44;2.13;;;1.75;;
42754;SDS011;28407;51.830;5.684;2022-10-16T06:23:45;2.58;;;2.20;;
42754;SDS011;28407;51.830;5.684;2022-10-16T06:25:46;3.05;;;1.98;;
42754;SDS011;28407;51.830;5.684;2022-10-16T06:27:46;1.80;;;1.70;;
42754;SDS011;28407;51.830;5.684;2022-10-16T06:29:47;2.33;;;1.80;;
42754;SDS011;28407;51.830;5.684;2022-10-16T06:31:47;2.40;;;2.20;;
42754;SDS011;28407;51.830;5.684;2022-10-16T06:33:51;2.25;;;2.05;;
42754;SDS011;28407;51.830;5.684;2022-10-16T06:35:52;2.17;;;1.73;;
42754;SDS011;28407;51.830;5.684;2022-10-16T06:37:52;2.10;;;1.85;;
42754;SDS011;28407;51.830;5.684;2022-10-16T06:39:53;3.80;;;2.17;;
42754;SDS011;28407;51.830;5.684;2022-10-16T06:41:54;3.03;;;2.22;;
42754;SDS011;28407;51.830;5.684;2022-10-16T06:43:54;2.65;;;2.00;;
42754;SDS011;28407;51.830;5.684;2022-10-16T06:45:55;2.33;;;2.00;;
42754;SDS011;28407;51.830;5.684;2022-10-16T06:47:57;2.78;;;2.00;;
42754;SDS011;28407;51.830;5.684;2022-10-16T06:49:57;1.92;;;1.77;;
42754;SDS011;28407;51.830;5.684;2022-10-16T06:51:58;2.08;;;1.80;;
42754;SDS011;28407;51.830;5.684;2022-10-16T06:53:59;1.92;;;1.73;;
42754;SDS011;28407;51.830;5.684;2022-10-16T06:58:16;2.58;;;1.92;;
42754;SDS011;28407;51.830;5.684;2022-10-16T07:00:17;2.40;;;1.90;;
42754;SDS011;28407;51.830;5.684;2022-10-16T07:02:17;2.60;;;2.00;;
42754;SDS011;28407;51.830;5.684;2022-10-16T07:04:18;2.40;;;2.03;;
42754;SDS011;28407;51.830;5.684;2022-10-16T07:06:20;2.50;;;1.98;;
42754;SDS011;28407;51.830;5.684;2022-10-16T07:08:22;2.83;;;2.10;;
42754;SDS011;28407;51.830;5.684;2022-10-16T07:10:22;4.22;;;2.30;;
42754;SDS011;28407;51.830;5.684;2022-10-16T07:12:26;2.50;;;1.95;;
42754;SDS011;28407;51.830;5.684;2022-10-16T07:14:27;2.30;;;2.10;;
42754;SDS011;28407;51.830;5.684;2022-10-16T07:16:28;2.28;;;1.90;;
42754;SDS011;28407;51.830;5.684;2022-10-16T07:18:30;2.83;;;2.22;;
42754;SDS011;28407;51.830;5.684;2022-10-16T07:20:32;3.67;;;2.17;;
42754;SDS011;28407;51.830;5.684;2022-10-16T07:22:33;7.80;;;3.42;;
42754;SDS011;28407;51.830;5.684;2022-10-16T07:24:33;2.85;;;2.10;;
42754;SDS011;28407;51.830;5.684;2022-10-16T07:26:35;2.50;;;1.80;;
42754;SDS011;28407;51.830;5.684;2022-10-16T07:28:37;2.65;;;1.77;;
42754;SDS011;28407;51.830;5.684;2022-10-16T07:30:39;4.03;;;1.95;;
42754;SDS011;28407;51.830;5.684;2022-10-16T07:32:40;2.92;;;2.08;;
42754;SDS011;28407;51.830;5.684;2022-10-16T07:34:40;3.00;;;2.20;;
42754;SDS011;28407;51.830;5.684;2022-10-16T07:36:42;3.30;;;2.05;;
42754;SDS011;28407;51.830;5.684;2022-10-16T07:38:42;2.25;;;1.95;;
42754;SDS011;28407;51.830;5.684;2022-10-16T07:40:44;2.03;;;1.77;;
42754;SDS011;28407;51.830;5.684;2022-10-16T07:42:45;2.63;;;2.03;;
42754;SDS011;28407;51.830;5.684;2022-10-16T07:44:45;3.13;;;2.00;;
42754;SDS011;28407;51.830;5.684;2022-10-16T07:46:46;3.70;;;2.13;;
42754;SDS011;28407;51.830;5.684;2022-10-16T07:48:47;2.45;;;1.95;;
42754;SDS011;28407;51.830;5.684;2022-10-16T07:50:48;3.38;;;1.98;;
42754;SDS011;28407;51.830;5.684;2022-10-16T07:52:48;2.80;;;2.20;;
42754;SDS011;28407;51.830;5.684;2022-10-16T07:54:49;3.80;;;1.85;;
42754;SDS011;28407;51.830;5.684;2022-10-16T07:56:50;2.38;;;1.63;;
42754;SDS011;28407;51.830;5.684;2022-10-16T07:58:50;3.75;;;2.10;;
42754;SDS011;28407;51.830;5.684;2022-10-16T08:00:51;1.98;;;1.60;;
42754;SDS011;28407;51.830;5.684;2022-10-16T08:02:52;2.75;;;2.10;;
42754;SDS011;28407;51.830;5.684;2022-10-16T08:04:52;3.60;;;2.00;;
42754;SDS011;28407;51.830;5.684;2022-10-16T08:06:53;3.92;;;2.00;;
42754;SDS011;28407;51.830;5.684;2022-10-16T08:08:55;2.08;;;1.83;;
42754;SDS011;28407;51.830;5.684;2022-10-16T08:10:56;2.15;;;1.65;;
42754;SDS011;28407;51.830;5.684;2022-10-16T08:12:57;2.20;;;1.85;;
42754;SDS011;28407;51.830;5.684;2022-10-16T08:14:58;2.58;;;2.10;;
42754;SDS011;28407;51.830;5.684;2022-10-16T08:16:59;3.22;;;2.00;;
42754;SDS011;28407;51.830;5.684;2022-10-16T08:19:02;2.55;;;2.33;;
42754;SDS011;28407;51.830;5.684;2022-10-16T08:21:03;4.03;;;2.03;;
42754;SDS011;28407;51.830;5.684;2022-10-16T08:23:04;4.63;;;2.13;;
42754;SDS011;28407;51.830;5.684;2022-10-16T08:25:05;2.80;;;1.77;;
42754;SDS011;28407;51.830;5.684;2022-10-16T08:27:06;3.08;;;1.80;;
42754;SDS011;28407;51.830;5.684;2022-10-16T08:29:07;2.55;;;1.98;;
42754;SDS011;28407;51.830;5.684;2022-10-16T08:31:08;2.70;;;1.70;;
42754;SDS011;28407;51.830;5.684;2022-10-16T08:33:11;2.42;;;1.60;;
42754;SDS011;28407;51.830;5.684;2022-10-16T08:35:12;1.60;;;1.50;;
42754;SDS011;28407;51.830;5.684;2022-10-16T08:37:13;1.95;;;1.75;;
42754;SDS011;28407;51.830;5.684;2022-10-16T08:39:15;8.07;;;1.92;;
42754;SDS011;28407;51.830;5.684;2022-10-16T08:43:43;1.75;;;1.50;;
42754;SDS011;28407;51.830;5.684;2022-10-16T08:48:30;2.25;;;1.67;;
42754;SDS011;28407;51.830;5.684;2022-10-16T08:50:38;2.25;;;1.63;;
42754;SDS011;28407;51.830;5.684;2022-10-16T08:52:41;3.10;;;1.77;;
42754;SDS011;28407;51.830;5.684;2022-10-16T08:54:45;1.50;;;1.40;;
42754;SDS011;28407;51.830;5.684;2022-10-16T08:56:50;2.13;;;1.52;;
42754;SDS011;28407;51.830;5.684;2022-10-16T08:58:51;3.20;;;1.60;;
42754;SDS011;28407;51.830;5.684;2022-10-16T09:00:53;2.72;;;1.70;;
42754;SDS011;28407;51.830;5.684;2022-10-16T09:03:11;1.88;;;1.52;;
42754;SDS011;28407;51.830;5.684;2022-10-16T09:05:24;1.48;;;1.38;;
42754;SDS011;28407;51.830;5.684;2022-10-16T09:10:01;2.25;;;1.65;;
42754;SDS011;28407;51.830;5.684;2022-10-16T09:12:16;1.63;;;1.52;;
42754;SDS011;28407;51.830;5.684;2022-10-16T09:16:57;2.95;;;1.50;;
42754;SDS011;28407;51.830;5.684;2022-10-16T09:19:26;2.60;;;1.73;;
42754;SDS011;28407;51.830;5.684;2022-10-16T09:21:30;2.45;;;1.50;;
42754;SDS011;28407;51.830;5.684;2022-10-16T09:23:37;2.40;;;1.67;;
42754;SDS011;28407;51.830;5.684;2022-10-16T09:25:38;3.47;;;1.63;;
42754;SDS011;28407;51.830;5.684;2022-10-16T09:27:44;2.28;;;1.60;;
42754;SDS011;28407;51.830;5.684;2022-10-16T09:29:47;2.17;;;1.50;;
42754;SDS011;28407;51.830;5.684;2022-10-16T09:31:48;2.15;;;1.73;;
42754;SDS011;28407;51.830;5.684;2022-10-16T09:33:58;3.42;;;1.67;;
42754;SDS011;28407;51.830;5.684;2022-10-16T09:36:04;4.07;;;1.70;;
42754;SDS011;28407;51.830;5.684;2022-10-16T09:38:05;2.30;;;1.70;;
42754;SDS011;28407;51.830;5.684;2022-10-16T09:40:11;3.22;;;1.80;;
42754;SDS011;28407;51.830;5.684;2022-10-16T09:42:34;2.35;;;1.60;;
42754;SDS011;28407;51.830;5.684;2022-10-16T09:44:37;3.90;;;1.67;;
42754;SDS011;28407;51.830;5.684;2022-10-16T09:46:38;2.60;;;1.50;;
42754;SDS011;28407;51.830;5.684;2022-10-16T09:48:43;2.17;;;1.42;;
42754;SDS011;28407;51.830;5.684;2022-10-16T09:50:56;2.85;;;1.90;;
42754;SDS011;28407;51.830;5.684;2022-10-16T09:53:11;2.53;;;1.80;;
42754;SDS011;28407;51.830;5.684;2022-10-16T09:55:15;1.83;;;1.60;;
42754;SDS011;28407;51.830;5.684;2022-10-16T09:57:17;3.45;;;2.22;;
42754;SDS011;28407;51.830;5.684;2022-10-16T09:59:19;3.42;;;1.70;;
42754;SDS011;28407;51.830;5.684;2022-10-16T10:01:40;2.22;;;1.50;;
42754;SDS011;28407;51.830;5.684;2022-10-16T10:03:45;3.35;;;1.63;;
42754;SDS011;28407;51.830;5.684;2022-10-16T10:05:47;1.98;;;1.30;;
42754;SDS011;28407;51.830;5.684;2022-10-16T10:07:59;2.10;;;1.50;;
42754;SDS011;28407;51.830;5.684;2022-10-16T10:10:06;3.08;;;1.48;;
42754;SDS011;28407;51.830;5.684;2022-10-16T10:12:23;3.47;;;1.45;;
42754;SDS011;28407;51.830;5.684;2022-10-16T10:16:33;5.72;;;2.17;;
42754;SDS011;28407;51.830;5.684;2022-10-16T10:18:34;4.57;;;1.60;;
42754;SDS011;28407;51.830;5.684;2022-10-16T10:20:35;2.28;;;1.30;;
42754;SDS011;28407;51.830;5.684;2022-10-16T10:24:46;3.58;;;1.40;;
42754;SDS011;28407;51.830;5.684;2022-10-16T10:27:09;2.75;;;1.33;;
42754;SDS011;28407;51.830;5.684;2022-10-16T10:31:50;2.35;;;1.20;;
42754;SDS011;28407;51.830;5.684;2022-10-16T10:37:10;4.28;;;1.48;;
42754;SDS011;28407;51.830;5.684;2022-10-16T10:39:28;4.93;;;1.48;;
42754;SDS011;28407;51.830;5.684;2022-10-16T10:41:52;3.08;;;1.20;;
42754;SDS011;28407;51.830;5.684;2022-10-16T10:46:50;2.35;;;1.35;;
42754;SDS011;28407;51.830;5.684;2022-10-16T10:51:31;6.53;;;1.35;;
42754;SDS011;28407;51.830;5.684;2022-10-16T11:03:50;3.35;;;1.25;;
42754;SDS011;28407;51.830;5.684;2022-10-16T11:08:43;3.85;;;1.40;;
42754;SDS011;28407;51.830;5.684;2022-10-16T11:10:53;3.28;;;1.33;;
42754;SDS011;28407;51.830;5.684;2022-10-16T11:13:10;3.05;;;1.90;;
42754;SDS011;28407;51.830;5.684;2022-10-16T11:15:36;6.22;;;1.20;;
42754;SDS011;28407;51.830;5.684;2022-10-16T11:17:42;2.22;;;1.30;;
42754;SDS011;28407;51.830;5.684;2022-10-16T11:19:49;2.53;;;1.30;;
42754;SDS011;28407;51.830;5.684;2022-10-16T11:22:03;3.40;;;1.00;;
42754;SDS011;28407;51.830;5.684;2022-10-16T11:24:23;1.38;;;1.10;;
42754;SDS011;28407;51.830;5.684;2022-10-16T11:26:32;3.20;;;1.52;;
42754;SDS011;28407;51.830;5.684;2022-10-16T11:28:37;3.95;;;1.27;;
42754;SDS011;28407;51.830;5.684;2022-10-16T11:30:49;4.53;;;1.63;;
42754;SDS011;28407;51.830;5.684;2022-10-16T11:35:48;2.25;;;1.20;;
42754;SDS011;28407;51.830;5.684;2022-10-16T11:38:07;2.13;;;1.00;;
42754;SDS011;28407;51.830;5.684;2022-10-16T11:40:22;4.72;;;1.38;;
42754;SDS011;28407;51.830;5.684;2022-10-16T11:42:39;2.75;;;1.25;;
42754;SDS011;28407;51.830;5.684;2022-10-16T11:45:34;4.47;;;1.35;;
42754;SDS011;28407;51.830;5.684;2022-10-16T11:50:11;2.65;;;1.00;;
42754;SDS011;28407;51.830;5.684;2022-10-16T11:52:52;2.85;;;1.13;;
42754;SDS011;28407;51.830;5.684;2022-10-16T11:57:09;2.42;;;1.27;;
42754;SDS011;28407;51.830;5.684;2022-10-16T11:59:24;3.83;;;1.35;;
42754;SDS011;28407;51.830;5.684;2022-10-16T12:01:40;5.35;;;2.15;;
42754;SDS011;28407;51.830;5.684;2022-10-16T12:04:02;2.40;;;1.27;;
42754;SDS011;28407;51.830;5.684;2022-10-16T12:06:23;3.88;;;1.50;;
42754;SDS011;28407;51.830;5.684;2022-10-16T12:08:25;1.77;;;0.90;;
42754;SDS011;28407;51.830;5.684;2022-10-16T12:10:28;5.13;;;1.48;;
42754;SDS011;28407;51.830;5.684;2022-10-16T12:14:36;2.83;;;1.27;;
42754;SDS011;28407;51.830;5.684;2022-10-16T12:16:39;3.30;;;1.30;;
42754;SDS011;28407;51.830;5.684;2022-10-16T12:19:13;1.95;;;1.00;;
42754;SDS011;28407;51.830;5.684;2022-10-16T12:21:16;4.13;;;1.20;;
42754;SDS011;28407;51.830;5.684;2022-10-16T12:23:19;6.30;;;1.35;;
42754;SDS011;28407;51.830;5.684;2022-10-16T12:25:27;4.25;;;1.10;;
42754;SDS011;28407;51.830;5.684;2022-10-16T12:27:30;4.38;;;1.40;;
42754;SDS011;28407;51.830;5.684;2022-10-16T12:29:33;3.78;;;1.40;;
42754;SDS011;28407;51.830;5.684;2022-10-16T12:31:38;1.90;;;1.02;;
42754;SDS011;28407;51.830;5.684;2022-10-16T12:33:56;5.35;;;1.13;;
42754;SDS011;28407;51.830;5.684;2022-10-16T12:35:58;2.08;;;1.00;;
42754;SDS011;28407;51.830;5.684;2022-10-16T12:38:05;3.13;;;1.02;;
42754;SDS011;28407;51.830;5.684;2022-10-16T12:40:15;2.28;;;1.05;;
42754;SDS011;28407;51.830;5.684;2022-10-16T12:44:26;1.73;;;0.98;;
42754;SDS011;28407;51.830;5.684;2022-10-16T12:48:37;3.97;;;1.65;;
42754;SDS011;28407;51.830;5.684;2022-10-16T12:50:39;5.07;;;2.28;;
42754;SDS011;28407;51.830;5.684;2022-10-16T12:52:41;1.83;;;1.17;;
42754;SDS011;28407;51.830;5.684;2022-10-16T12:54:44;2.05;;;1.42;;
42754;SDS011;28407;51.830;5.684;2022-10-16T12:56:58;3.50;;;1.02;;
42754;SDS011;28407;51.830;5.684;2022-10-16T12:59:04;3.03;;;0.85;;
42754;SDS011;28407;51.830;5.684;2022-10-16T13:06:08;1.63;;;1.00;;
42754;SDS011;28407;51.830;5.684;2022-10-16T13:08:21;3.60;;;1.33;;
42754;SDS011;28407;51.830;5.684;2022-10-16T13:10:31;2.63;;;1.00;;
42754;SDS011;28407;51.830;5.684;2022-10-16T13:13:11;5.18;;;1.10;;
42754;SDS011;28407;51.830;5.684;2022-10-16T13:15:24;3.97;;;1.10;;
42754;SDS011;28407;51.830;5.684;2022-10-16T13:17:59;2.92;;;1.05;;
42754;SDS011;28407;51.830;5.684;2022-10-16T13:22:32;2.20;;;0.80;;
42754;SDS011;28407;51.830;5.684;2022-10-16T13:25:02;2.47;;;1.05;;
42754;SDS011;28407;51.830;5.684;2022-10-16T13:27:38;2.25;;;0.98;;
42754;SDS011;28407;51.830;5.684;2022-10-16T13:29:48;1.88;;;0.88;;
42754;SDS011;28407;51.830;5.684;2022-10-16T13:31:55;2.97;;;0.90;;
42754;SDS011;28407;51.830;5.684;2022-10-16T13:33:56;1.88;;;0.80;;
42754;SDS011;28407;51.830;5.684;2022-10-16T13:36:01;2.75;;;0.88;;
42754;SDS011;28407;51.830;5.684;2022-10-16T13:38:13;3.63;;;1.00;;
42754;SDS011;28407;51.830;5.684;2022-10-16T13:40:20;2.45;;;1.10;;
42754;SDS011;28407;51.830;5.684;2022-10-16T13:42:23;4.28;;;1.17;;
42754;SDS011;28407;51.830;5.684;2022-10-16T13:44:28;2.95;;;0.95;;
42754;SDS011;28407;51.830;5.684;2022-10-16T13:46:36;2.60;;;0.90;;